Terminal Aerodrome Forecast
Issued by NWS Amarillo, TX

Home | Current Version | Previous Version | Text Only | Print | Product List | Glossary On
Versions: 1 2 3 4 5 6 7 8 9 10 11 12 13 14 15 16 17 18
000
FTUS44 KAMA 271700 RRA
TAFDHT
TAF
KDHT 271741Z 2718/2818 19013G18KT P6SM SCT080 BKN150
     FM271900 20015G22KT P6SM VCTS BKN070CB
     FM280000 19015G22KT P6SM BKN080
     FM280200 21010KT P6SM BKN100
     FM281300 35012KT P6SM SCT100 BKN200=

USA.gov is the U.S. government's official web portal to all federal, state and local government web resources and services.